Time;durP1;ratioP1;P1;durP2;ratioP2;P2;SDS_P1;SDS_P2;PMS_P1;PMS_P2;Temp;Humidity;BMP_temperature;BMP_pressure;BME280_temperature;BME280_humidity;BME280_pressure;Samples;Min_cycle;Max_cycle;Signal;HPM_P1;HPM_P2
2021/06/10 00:01:12;;;;;;;13.80;12.60;;;18.10;99.90;;;;;;5017631;28;21009;-46
2021/06/10 00:03:38;;;;;;;14.57;13.37;;;18.10;99.90;;;;;;5009618;28;20528;-48
2021/06/10 00:06:05;;;;;;;14.80;13.67;;;18.00;99.90;;;;;;5016529;28;20463;-48
2021/06/10 00:08:34;;;;;;;14.03;13.03;;;17.90;99.90;;;;;;5017342;28;20452;-44
2021/06/10 00:11:01;;;;;;;12.97;11.97;;;17.90;99.90;;;;;;5017796;28;20869;-44
2021/06/10 00:13:28;;;;;;;12.10;11.00;;;17.70;99.90;;;;;;5017430;28;20456;-44
2021/06/10 00:15:54;;;;;;;11.90;11.00;;;17.60;99.90;;;;;;5017242;28;20464;-44
2021/06/10 00:18:25;;;;;;;11.07;10.10;;;17.60;99.90;;;;;;5017836;28;20495;-51
2021/06/10 00:20:52;;;;;;;11.27;10.27;;;17.60;99.90;;;;;;5016641;28;20464;-48
2021/06/10 00:23:19;;;;;;;10.43;9.63;;;17.50;99.90;;;;;;5017584;28;20794;-48
2021/06/10 00:25:45;;;;;;;10.43;9.53;;;17.40;99.90;;;;;;5016855;28;20471;-52
2021/06/10 00:28:15;;;;;;;12.57;11.57;;;17.30;99.90;;;;;;5017628;28;20518;-48
2021/06/10 00:30:41;;;;;;;14.00;12.80;;;17.30;99.90;;;;;;5017518;28;20745;-47
2021/06/10 00:33:08;;;;;;;15.17;13.77;;;17.30;99.90;;;;;;5017226;28;20474;-50
2021/06/10 00:35:36;;;;;;;12.83;11.93;;;17.20;99.90;;;;;;5021142;28;20581;-52
2021/06/10 00:38:03;;;;;;;13.37;12.30;;;17.10;99.90;;;;;;5021278;28;20502;-48
2021/06/10 00:40:32;;;;;;;12.93;11.83;;;17.10;99.90;;;;;;5021004;28;20463;-49
2021/06/10 00:42:59;;;;;;;13.73;12.63;;;17.00;99.90;;;;;;5021479;28;20468;-48
2021/06/10 00:45:28;;;;;;;14.53;13.33;;;17.00;99.90;;;;;;5021070;28;20982;-48
2021/06/10 00:47:55;;;;;;;14.70;13.50;;;16.90;99.90;;;;;;5021687;28;20496;-44
2021/06/10 00:50:25;;;;;;;15.60;14.13;;;16.80;99.90;;;;;;5021406;28;20762;-44
2021/06/10 00:52:53;;;;;;;15.20;14.10;;;16.70;99.90;;;;;;5020932;28;20463;-45
2021/06/10 00:55:20;;;;;;;14.90;13.60;;;16.70;99.90;;;;;;5021170;28;20490;-44
2021/06/10 00:57:46;;;;;;;15.27;13.97;;;16.60;99.90;;;;;;5021167;28;20491;-45
2021/06/10 01:00:15;;;;;;;16.40;13.37;;;16.50;99.90;;;;;;5021276;28;20463;-44
2021/06/10 01:02:42;;;;;;;14.30;13.00;;;16.40;99.90;;;;;;5021761;28;20456;-51
2021/06/10 01:05:11;;;;;;;15.97;14.47;;;16.30;99.90;;;;;;5016413;28;20573;-52
2021/06/10 01:07:44;;;;;;;15.20;14.00;;;16.30;99.90;;;;;;5014342;28;20460;-52
2021/06/10 01:10:21;;;;;;;16.60;15.30;;;16.30;99.90;;;;;;5020540;28;20783;-51
2021/06/10 01:12:59;;;;;;;14.90;13.80;;;16.30;99.90;;;;;;5019823;28;20469;-54
2021/06/10 01:15:30;;;;;;;15.47;14.20;;;16.20;99.90;;;;;;5020411;28;20447;-53
2021/06/10 01:17:58;;;;;;;17.87;16.37;;;16.20;99.90;;;;;;5020279;28;20498;-45
2021/06/10 01:20:27;;;;;;;18.00;16.50;;;16.10;99.90;;;;;;5020425;28;20468;-51
2021/06/10 01:23:03;;;;;;;18.20;16.70;;;16.10;99.90;;;;;;5020451;28;20464;-49
2021/06/10 01:25:46;;;;;;;19.13;17.53;;;16.10;99.90;;;;;;5019812;28;20778;-50
2021/06/10 01:28:18;;;;;;;17.00;15.60;;;16.00;99.90;;;;;;5022299;28;20460;-48
2021/06/10 01:30:52;;;;;;;18.23;16.70;;;16.00;99.90;;;;;;5019885;28;20499;-51
2021/06/10 01:33:23;;;;;;;17.57;16.17;;;16.00;99.90;;;;;;5020187;28;20467;-48
2021/06/10 01:35:58;;;;;;;17.50;16.10;;;16.00;99.90;;;;;;5020400;28;20499;-49
2021/06/10 01:38:26;;;;;;;19.10;17.40;;;16.00;99.90;;;;;;5020347;28;20495;-48
2021/06/10 01:40:56;;;;;;;17.87;16.27;;;16.00;99.90;;;;;;5019878;28;20514;-51
2021/06/10 01:43:25;;;;;;;18.57;16.97;;;16.00;99.90;;;;;;5019893;28;20475;-48
2021/06/10 01:45:55;;;;;;;18.57;16.80;;;16.00;99.90;;;;;;5018790;28;20470;-46
2021/06/10 01:48:24;;;;;;;18.23;16.73;;;16.00;99.90;;;;;;5019950;28;20503;-44
2021/06/10 01:50:56;;;;;;;18.33;16.63;;;16.00;99.90;;;;;;5019335;28;20464;-47
2021/06/10 01:53:23;;;;;;;17.93;16.50;;;16.00;99.90;;;;;;5019981;28;20464;-52
2021/06/10 01:55:51;;;;;;;18.70;16.90;;;16.00;99.90;;;;;;5020354;28;20514;-51
2021/06/10 01:58:18;;;;;;;18.60;16.60;;;16.00;99.90;;;;;;5019828;28;20467;-51
2021/06/10 02:00:47;;;;;;;18.90;17.30;;;15.90;99.90;;;;;;5019576;28;20904;-48
2021/06/10 02:03:15;;;;;;;18.50;17.00;;;15.90;99.90;;;;;;5014164;28;20768;-48
2021/06/10 02:05:43;;;;;;;17.63;16.13;;;15.90;99.90;;;;;;5016380;28;20482;-47
2021/06/10 02:08:11;;;;;;;18.93;17.00;;;16.00;99.90;;;;;;5018917;28;20496;-44
2021/06/10 02:10:39;;;;;;;18.43;16.70;;;16.00;99.90;;;;;;5019767;28;20486;-48
2021/06/10 02:13:07;;;;;;;18.90;17.40;;;16.00;99.90;;;;;;5019239;28;20461;-44
2021/06/10 02:15:36;;;;;;;19.60;18.00;;;16.00;99.90;;;;;;5019695;28;20943;-47
2021/06/10 02:18:04;;;;;;;18.30;16.80;;;15.90;99.90;;;;;;5019299;28;20510;-53
2021/06/10 02:20:31;;;;;;;18.97;17.37;;;15.90;99.90;;;;;;5019789;28;20765;-48
2021/06/10 02:22:59;;;;;;;18.93;17.37;;;15.90;99.90;;;;;;5019099;28;20879;-51
2021/06/10 02:25:25;;;;;;;20.90;19.10;;;15.80;99.90;;;;;;5019374;28;20802;-48
2021/06/10 02:27:52;;;;;;;18.17;16.77;;;15.80;99.90;;;;;;5019164;28;20492;-51
2021/06/10 02:30:19;;;;;;;19.97;18.17;;;15.70;99.90;;;;;;5019410;28;20673;-48
2021/06/10 02:32:46;;;;;;;18.67;16.97;;;15.70;99.90;;;;;;5018888;28;20471;-44
2021/06/10 02:35:16;;;;;;;19.40;17.70;;;15.70;99.90;;;;;;5018907;28;20488;-44
2021/06/10 02:37:46;;;;;;;19.63;18.07;;;15.70;99.90;;;;;;5019086;28;20911;-44
2021/06/10 02:40:16;;;;;;;19.33;17.73;;;15.70;99.90;;;;;;5018966;28;20468;-44
2021/06/10 02:42:44;;;;;;;20.33;18.63;;;15.80;99.90;;;;;;5019397;28;20522;-45
2021/06/10 02:45:13;;;;;;;20.20;18.50;;;15.80;99.90;;;;;;5018878;28;20947;-44
2021/06/10 02:47:42;;;;;;;22.10;20.17;;;15.70;99.90;;;;;;5018392;28;20771;-48
2021/06/10 02:50:13;;;;;;;19.43;17.83;;;15.60;99.90;;;;;;5019119;28;20468;-51
2021/06/10 02:52:44;;;;;;;21.63;19.73;;;15.60;99.90;;;;;;5019127;28;20456;-52
2021/06/10 02:55:13;;;;;;;21.33;19.43;;;15.50;99.90;;;;;;5018967;28;20780;-51
2021/06/10 02:57:41;;;;;;;20.33;18.60;;;15.40;99.90;;;;;;5018410;28;20475;-48
2021/06/10 03:00:09;;;;;;;21.03;19.03;;;15.40;99.90;;;;;;5019693;28;20755;-47
2021/06/10 03:02:37;;;;;;;21.20;19.40;;;15.30;99.90;;;;;;5015056;28;21316;-51
2021/06/10 03:05:05;;;;;;;20.10;18.27;;;15.30;99.90;;;;;;5013945;28;20472;-51
2021/06/10 03:07:35;;;;;;;20.80;18.63;;;15.20;99.90;;;;;;5018083;28;20973;-49
2021/06/10 03:10:06;;;;;;;20.50;18.70;;;15.20;99.90;;;;;;5018241;28;20464;-48
2021/06/10 03:12:33;;;;;;;21.20;19.30;;;15.10;99.90;;;;;;5017970;28;20536;-53
2021/06/10 03:15:01;;;;;;;21.23;19.40;;;15.10;99.90;;;;;;5018768;28;20514;-48
2021/06/10 03:17:28;;;;;;;21.50;19.37;;;15.00;99.90;;;;;;5018279;28;20966;-46
2021/06/10 03:19:56;;;;;;;20.90;19.00;;;14.90;99.90;;;;;;5018478;28;20463;-46
2021/06/10 03:22:23;;;;;;;22.37;20.47;;;14.90;99.90;;;;;;5018334;28;20459;-44
2021/06/10 04:01:58;;;;;;;21.47;19.47;;;14.60;99.90;;;;;;896496;23;21998;-53
2021/06/10 04:04:29;;;;;;;20.80;19.00;;;14.60;99.90;;;;;;4970704;28;20918;-43
2021/06/10 04:06:57;;;;;;;23.40;21.03;;;14.60;99.90;;;;;;4977744;28;20520;-44
2021/06/10 04:09:24;;;;;;;23.30;21.30;;;14.70;99.90;;;;;;4977517;28;20580;-44
2021/06/10 04:11:53;;;;;;;23.30;21.10;;;14.70;99.90;;;;;;4977324;28;20466;-47
2021/06/10 04:14:20;;;;;;;22.53;20.63;;;14.70;99.90;;;;;;4978292;28;20489;-46
2021/06/10 04:16:49;;;;;;;22.10;20.20;;;14.80;99.90;;;;;;4978155;28;20466;-47
2021/06/10 04:19:17;;;;;;;23.20;21.03;;;14.80;99.90;;;;;;4978324;28;20883;-44
2021/06/10 04:21:44;;;;;;;23.47;21.47;;;14.80;99.90;;;;;;4977847;28;20528;-44
2021/06/10 04:24:11;;;;;;;24.73;22.53;;;14.90;99.90;;;;;;4978986;28;20511;-44
2021/06/10 04:26:38;;;;;;;25.03;22.90;;;14.90;99.90;;;;;;4978582;28;20882;-50
2021/06/10 04:29:07;;;;;;;26.03;23.60;;;14.90;99.90;;;;;;4978217;28;20498;-51
2021/06/10 04:31:34;;;;;;;23.97;21.87;;;15.10;99.90;;;;;;4978297;28;20473;-53
2021/06/10 04:34:02;;;;;;;25.70;23.40;;;15.10;99.90;;;;;;4978246;28;20469;-54
2021/06/10 04:36:30;;;;;;;25.10;22.80;;;15.20;99.90;;;;;;4978470;28;20533;-51
2021/06/10 04:38:58;;;;;;;23.77;21.73;;;15.20;99.90;;;;;;4978287;28;20458;-54
2021/06/10 04:41:25;;;;;;;24.97;22.97;;;15.20;99.90;;;;;;4978459;28;20798;-51
2021/06/10 04:43:52;;;;;;;26.03;23.83;;;15.30;99.90;;;;;;4978083;28;20739;-50
2021/06/10 04:46:18;;;;;;;24.13;21.87;;;15.20;99.90;;;;;;4978413;28;20466;-48
2021/06/10 04:48:45;;;;;;;26.83;24.53;;;15.20;99.90;;;;;;4978216;28;20797;-51
2021/06/10 04:51:11;;;;;;;24.50;22.40;;;15.20;99.90;;;;;;4978296;28;20477;-53
2021/06/10 04:53:42;;;;;;;24.60;22.60;;;15.20;99.90;;;;;;4978063;28;20531;-44
2021/06/10 04:56:08;;;;;;;24.50;22.50;;;15.40;99.90;;;;;;4978328;28;20643;-44
2021/06/10 05:36:45;;;;;;;24.33;22.27;;;16.70;99.90;;;;;;4999514;28;20587;-45
2021/06/10 05:39:12;;;;;;;28.90;26.57;;;16.90;99.90;;;;;;5000763;28;20893;-45
2021/06/10 05:41:40;;;;;;;33.43;30.43;;;17.10;99.90;;;;;;5000827;28;20892;-46
2021/06/10 05:44:07;;;;;;;31.10;28.40;;;17.30;99.90;;;;;;5000794;28;20460;-46
2021/06/10 05:46:33;;;;;;;26.67;24.40;;;17.50;99.90;;;;;;5000611;28;20464;-52
2021/06/10 05:49:01;;;;;;;31.67;28.87;;;17.70;99.90;;;;;;5000280;28;20493;-51
2021/06/10 05:51:28;;;;;;;30.97;28.17;;;17.90;99.90;;;;;;5000463;28;20511;-51
2021/06/10 05:54:00;;;;;;;29.30;26.70;;;18.10;99.90;;;;;;5000309;28;20765;-53
2021/06/10 05:56:27;;;;;;;28.70;26.20;;;18.40;99.90;;;;;;4998937;28;20473;-54
2021/06/10 05:58:53;;;;;;;28.63;26.13;;;18.60;99.90;;;;;;5000113;28;20487;-48
2021/06/10 06:01:20;;;;;;;29.77;27.17;;;18.80;99.90;;;;;;5000639;28;20889;-52
2021/06/10 06:03:49;;;;;;;29.00;26.70;;;19.10;99.90;;;;;;4991859;28;20477;-51
2021/06/10 06:06:19;;;;;;;30.60;28.10;;;19.30;99.90;;;;;;4999489;28;20736;-46
2021/06/10 06:08:46;;;;;;;29.43;26.93;;;19.60;99.90;;;;;;4999766;28;20495;-46
2021/06/10 06:11:14;;;;;;;29.20;26.70;;;19.90;99.90;;;;;;5000361;28;20477;-44
2021/06/10 06:13:45;;;;;;;29.83;27.33;;;20.20;99.90;;;;;;5000102;28;20457;-44
2021/06/10 06:16:14;;;;;;;29.80;27.20;;;20.50;99.90;;;;;;4999870;28;20473;-46
2021/06/10 06:18:41;;;;;;;28.30;25.93;;;20.60;99.90;;;;;;5000093;28;20834;-44
2021/06/10 06:21:08;;;;;;;28.13;25.73;;;20.80;99.90;;;;;;4999931;28;20485;-48
2021/06/10 06:23:35;;;;;;;28.47;26.10;;;20.90;99.90;;;;;;5000112;28;20469;-48
2021/06/10 06:26:03;;;;;;;34.17;31.37;;;21.20;99.90;;;;;;4999809;28;20877;-44
2021/06/10 06:28:33;;;;;;;33.57;30.63;;;21.30;99.90;;;;;;4999987;28;20493;-44
2021/06/10 06:31:04;;;;;;;29.97;27.17;;;21.40;99.90;;;;;;4999446;28;20468;-44
2021/06/10 06:33:31;;;;;;;27.27;24.97;;;21.90;99.90;;;;;;4999702;28;20484;-51
2021/06/10 06:35:57;;;;;;;27.50;25.20;;;22.20;99.90;;;;;;4999297;28;20925;-51
2021/06/10 06:38:24;;;;;;;25.77;23.67;;;22.50;99.90;;;;;;4999048;28;20457;-48
2021/06/10 06:40:50;;;;;;;27.63;25.00;;;22.90;99.90;;;;;;4999705;28;20472;-52
2021/06/10 06:43:18;;;;;;;27.37;25.07;;;23.20;99.90;;;;;;5000175;28;20762;-47
2021/06/10 06:45:48;;;;;;;25.73;23.50;;;23.40;99.90;;;;;;4999340;28;20893;-54
2021/06/10 06:48:18;;;;;;;25.70;23.50;;;23.40;99.90;;;;;;4999284;28;20559;-49
2021/06/10 06:50:44;;;;;;;25.80;23.17;;;23.70;96.60;;;;;;4999640;28;20464;-47
2021/06/10 06:53:11;;;;;;;25.07;22.97;;;23.90;96.80;;;;;;4999209;28;20490;-44
2021/06/10 06:55:37;;;;;;;25.37;22.87;;;24.10;98.00;;;;;;4999075;28;20825;-44
2021/06/10 06:58:06;;;;;;;22.67;20.67;;;24.20;94.70;;;;;;4999161;28;20570;-45
2021/06/10 07:00:33;;;;;;;19.90;18.27;;;24.60;90.10;;;;;;4998845;28;20465;-54
2021/06/10 07:03:02;;;;;;;20.10;18.50;;;24.70;95.50;;;;;;4993846;28;20491;-53
2021/06/10 07:05:29;;;;;;;18.90;16.80;;;25.00;92.00;;;;;;4995641;28;20540;-50
2021/06/10 07:07:55;;;;;;;17.53;15.90;;;25.30;80.20;;;;;;4998761;28;20767;-48
2021/06/10 07:10:22;;;;;;;13.93;12.87;;;25.40;79.60;;;;;;4998556;28;20481;-49
2021/06/10 07:12:48;;;;;;;12.13;11.13;;;25.50;81.30;;;;;;4999183;28;20753;-46
2021/06/10 07:15:16;;;;;;;8.87;8.07;;;25.80;65.20;;;;;;4999347;28;20484;-47
2021/06/10 07:17:42;;;;;;;6.50;6.00;;;25.50;69.30;;;;;;4999174;28;20893;-53
2021/06/10 07:20:12;;;;;;;7.83;7.17;;;25.40;62.90;;;;;;4998368;28;20465;-54
2021/06/10 07:22:40;;;;;;;5.60;5.20;;;25.40;58.70;;;;;;4998406;28;20464;-51
2021/06/10 07:25:08;;;;;;;9.40;7.53;;;25.80;59.40;;;;;;4998497;28;20465;-51
2021/06/10 07:27:38;;;;;;;6.73;6.13;;;26.50;62.50;;;;;;4998492;28;20468;-55
2021/06/10 07:30:12;;;;;;;5.87;5.37;;;26.70;57.30;;;;;;4998402;28;20497;-55
2021/06/10 07:32:39;;;;;;;6.93;6.33;;;27.00;54.60;;;;;;4998610;28;20464;-53
2021/06/10 07:35:07;;;;;;;19.73;7.67;;;27.20;53.40;;;;;;4998536;28;20501;-55
2021/06/10 07:37:35;;;;;;;8.30;7.50;;;27.30;54.50;;;;;;4998824;28;20752;-46
2021/06/10 07:40:02;;;;;;;8.43;7.40;;;27.40;54.70;;;;;;4997984;28;20482;-48
2021/06/10 07:42:29;;;;;;;10.20;9.30;;;27.20;53.40;;;;;;4998392;28;20469;-53
2021/06/10 07:44:56;;;;;;;11.20;7.90;;;27.30;53.50;;;;;;4998575;28;20932;-48
2021/06/10 07:47:22;;;;;;;9.87;8.80;;;27.30;54.10;;;;;;4998086;28;20468;-45
2021/06/10 07:49:49;;;;;;;10.43;9.00;;;27.50;54.80;;;;;;4998018;28;20952;-46
2021/06/10 07:52:15;;;;;;;8.90;8.10;;;27.40;53.50;;;;;;4998184;28;20473;-46
2021/06/10 07:54:46;;;;;;;8.57;7.80;;;27.70;53.00;;;;;;4998204;28;20469;-48
2021/06/10 07:57:14;;;;;;;9.23;8.40;;;27.80;51.80;;;;;;4997880;28;20538;-45
2021/06/10 07:59:41;;;;;;;9.00;8.23;;;28.00;51.60;;;;;;4998443;28;20457;-47
2021/06/10 08:02:08;;;;;;;8.70;8.00;;;27.80;48.50;;;;;;4998131;28;20523;-52
2021/06/10 08:04:35;;;;;;;9.27;7.00;;;28.00;51.70;;;;;;4989776;28;20956;-51
2021/06/10 08:07:01;;;;;;;9.03;8.20;;;28.40;50.40;;;;;;4997243;28;20461;-53
2021/06/10 08:09:32;;;;;;;7.80;7.00;;;28.00;52.50;;;;;;4997727;28;20489;-55
2021/06/10 08:12:01;;;;;;;7.60;7.00;;;27.90;54.80;;;;;;4993186;28;20500;-51
2021/06/10 08:14:28;;;;;;;8.40;7.70;;;28.10;51.40;;;;;;4998863;28;20461;-56
2021/06/10 08:16:57;;;;;;;10.67;8.30;;;28.50;50.10;;;;;;5014233;28;20453;-51
2021/06/10 08:19:23;;;;;;;9.60;8.90;;;28.90;51.10;;;;;;4978863;28;20461;-52
2021/06/10 08:21:50;;;;;;;9.03;8.13;;;28.70;50.90;;;;;;4987162;28;20461;-54
2021/06/10 08:24:17;;;;;;;13.00;7.47;;;28.10;49.20;;;;;;4987251;28;20469;-52
2021/06/10 08:26:43;;;;;;;9.03;8.33;;;28.70;51.90;;;;;;4970793;28;20529;-48
2021/06/10 08:29:12;;;;;;;8.33;7.53;;;28.30;48.10;;;;;;4977597;28;20493;-46
2021/06/10 08:31:41;;;;;;;7.83;7.13;;;28.70;49.40;;;;;;4978589;28;20469;-45
2021/06/10 08:34:11;;;;;;;7.00;6.40;;;28.50;47.70;;;;;;4986505;28;20462;-51
2021/06/10 08:36:37;;;;;;;6.60;6.13;;;28.70;50.20;;;;;;4984274;28;20496;-48
2021/06/10 08:39:04;;;;;;;7.60;6.87;;;29.30;49.00;;;;;;4989113;28;20452;-49
2021/06/10 08:41:33;;;;;;;6.53;5.87;;;29.10;48.80;;;;;;4998070;28;20475;-52
2021/06/10 08:44:00;;;;;;;6.70;6.20;;;29.60;51.20;;;;;;4997745;28;20524;-48
2021/06/10 08:46:33;;;;;;;6.10;5.73;;;29.80;48.50;;;;;;4997821;28;20903;-47
2021/06/10 08:49:01;;;;;;;6.27;5.77;;;30.20;47.00;;;;;;4997852;28;20532;-53
2021/06/10 08:51:28;;;;;;;5.80;5.40;;;30.00;47.00;;;;;;4998158;28;20920;-52
2021/06/10 08:53:57;;;;;;;8.10;7.40;;;30.60;49.10;;;;;;4997659;28;20472;-55
2021/06/10 08:56:25;;;;;;;7.53;6.90;;;30.50;46.00;;;;;;5001014;28;20477;-54
2021/06/10 08:58:51;;;;;;;9.83;7.30;;;30.90;45.20;;;;;;5001412;28;20460;-55
2021/06/10 09:01:20;;;;;;;9.93;7.70;;;30.30;44.80;;;;;;5001815;28;20468;-52
2021/06/10 09:03:49;;;;;;;8.30;7.27;;;30.60;45.60;;;;;;4993328;28;20559;-52
2021/06/10 09:06:17;;;;;;;7.97;7.27;;;30.30;43.60;;;;;;4999794;28;20456;-49
2021/06/10 09:47:12;;;;;;;4.97;4.67;;;31.60;41.40;;;;;;4864105;23;20579;-57
2021/06/10 09:49:38;;;;;;;5.30;4.80;;;30.90;43.70;;;;;;4985549;28;20548;-53
2021/06/10 09:52:06;;;;;;;4.03;3.73;;;29.70;41.70;;;;;;4999454;28;20893;-56
2021/06/10 09:54:44;;;;;;;7.07;4.63;;;29.00;47.10;;;;;;4998623;28;20563;-55
2021/06/10 09:57:13;;;;;;;3.57;3.37;;;29.70;47.20;;;;;;4984194;28;20861;-54
2021/06/10 09:59:48;;;;;;;4.33;3.97;;;29.80;40.90;;;;;;4979726;28;20973;-57
2021/06/10 10:02:22;;;;;;;4.63;4.20;;;29.20;41.50;;;;;;4980528;28;20476;-55
2021/06/10 10:05:08;;;;;;;4.87;3.63;;;29.40;42.60;;;;;;4973827;28;20739;-58
2021/06/10 10:07:36;;;;;;;4.87;4.47;;;29.80;45.80;;;;;;4968803;28;20502;-57
2021/06/10 10:10:06;;;;;;;4.97;4.67;;;30.10;43.10;;;;;;4979854;28;20458;-58
2021/06/10 10:12:39;;;;;;;3.70;3.50;;;31.00;42.50;;;;;;4980491;28;20462;-56
2021/06/10 10:15:07;;;;;;;4.90;4.23;;;30.50;42.50;;;;;;4980441;28;20446;-55
2021/06/10 10:17:36;;;;;;;4.43;4.13;;;30.50;41.50;;;;;;4980998;28;20465;-54
2021/06/10 10:20:05;;;;;;;5.60;5.20;;;30.90;42.30;;;;;;4979260;28;20498;-56
2021/06/10 10:22:32;;;;;;;5.30;4.93;;;30.40;41.40;;;;;;4978937;28;20454;-56
2021/06/10 10:24:59;;;;;;;4.80;3.87;;;30.70;43.00;;;;;;4979259;28;20776;-49
2021/06/10 10:27:26;;;;;;;6.90;6.33;;;29.50;42.80;;;;;;4980610;28;20468;-51
2021/06/10 10:29:54;;;;;;;7.17;6.77;;;29.20;43.50;;;;;;4979433;28;20469;-48
2021/06/10 10:32:23;;;;;;;6.27;5.80;;;29.40;45.00;;;;;;4980430;28;20580;-53
2021/06/10 10:34:51;;;;;;;6.60;6.10;;;30.10;43.30;;;;;;4979803;28;20470;-52
2021/06/10 10:37:21;;;;;;;5.47;5.17;;;30.70;42.90;;;;;;4980636;28;20473;-54
2021/06/10 10:39:49;;;;;;;5.60;5.20;;;31.30;41.60;;;;;;4979413;28;20498;-58
2021/06/10 10:42:27;;;;;;;5.40;5.00;;;31.70;40.80;;;;;;4979250;28;20476;-59
2021/06/10 10:45:10;;;;;;;6.13;5.63;;;31.40;42.10;;;;;;4984867;28;20463;-58
2021/06/10 10:47:41;;;;;;;7.73;5.07;;;30.30;41.50;;;;;;4985974;28;20457;-55
2021/06/10 10:50:17;;;;;;;6.43;5.97;;;31.10;45.00;;;;;;4979341;28;20465;-59
2021/06/10 10:52:53;;;;;;;5.17;4.83;;;30.90;39.80;;;;;;4980121;28;20470;-55
2021/06/10 10:55:28;;;;;;;6.70;6.00;;;30.80;40.60;;;;;;4975834;28;20539;-58
2021/06/10 10:57:59;;;;;;;5.77;5.37;;;30.90;40.80;;;;;;4989105;28;20460;-59
2021/06/10 11:00:47;;;;;;;5.87;5.37;;;31.00;41.40;;;;;;4986893;28;20500;-59
2021/06/10 11:03:17;;;;;;;6.30;5.80;;;31.40;42.40;;;;;;4985759;28;20924;-46
2021/06/10 11:05:49;;;;;;;6.07;5.20;;;31.70;43.80;;;;;;4975429;28;20764;-48
2021/06/10 11:08:16;;;;;;;5.93;5.37;;;31.50;40.00;;;;;;4963282;28;20457;-56
2021/06/10 11:11:01;;;;;;;6.57;6.10;;;31.70;41.10;;;;;;4970753;28;20461;-58
2021/06/10 11:13:32;;;;;;;6.27;5.70;;;30.20;40.90;;;;;;4979280;28;20866;-53
2021/06/10 11:16:04;;;;;;;6.53;5.93;;;30.40;41.60;;;;;;4978958;28;20465;-57
2021/06/10 11:18:51;;;;;;;7.10;6.47;;;30.80;43.00;;;;;;4979358;28;20469;-57
2021/06/10 11:21:51;;;;;;;7.37;6.57;;;31.20;44.80;;;;;;4979348;28;20453;-54
2021/06/10 11:24:21;;;;;;;6.20;5.70;;;31.40;40.60;;;;;;4979243;28;20469;-51
2021/06/10 11:26:51;;;;;;;6.10;5.50;;;32.10;44.70;;;;;;4979461;28;20513;-53
2021/06/10 11:29:18;;;;;;;7.90;7.30;;;33.00;38.90;;;;;;4979452;28;20733;-56
2021/06/10 11:32:26;;;;;;;10.43;6.80;;;32.20;40.00;;;;;;4978778;28;20465;-55
2021/06/10 11:34:55;;;;;;;6.83;6.23;;;32.50;39.10;;;;;;4979650;28;20496;-53
2021/06/10 11:37:23;;;;;;;7.70;7.00;;;32.30;37.50;;;;;;4979136;28;20468;-56
2021/06/10 11:39:51;;;;;;;6.13;5.73;;;31.80;38.60;;;;;;4978535;28;20499;-56
2021/06/10 11:42:17;;;;;;;7.30;6.77;;;33.00;41.20;;;;;;4978983;28;20475;-54
2021/06/10 11:44:48;;;;;;;6.17;5.77;;;31.80;36.30;;;;;;4979231;28;20461;-54
2021/06/10 11:47:25;;;;;;;6.13;5.73;;;32.30;38.30;;;;;;4977964;28;20485;-47
2021/06/10 11:49:54;;;;;;;5.83;5.43;;;33.00;37.90;;;;;;4977618;28;20520;-53
2021/06/10 11:52:22;;;;;;;6.10;5.70;;;33.20;37.90;;;;;;4978065;28;20485;-57
2021/06/10 11:55:10;;;;;;;7.20;6.60;;;33.40;36.00;;;;;;4978226;28;20496;-50
2021/06/10 11:57:38;;;;;;;6.00;5.50;;;33.10;35.30;;;;;;4978463;28;20936;-56
2021/06/10 12:00:10;;;;;;;5.53;5.13;;;33.20;38.10;;;;;;4978717;28;20945;-57
2021/06/10 12:02:40;;;;;;;5.53;4.93;;;33.30;35.30;;;;;;4975194;28;20496;-56
2021/06/10 12:05:11;;;;;;;7.47;5.97;;;32.80;34.50;;;;;;4973294;28;20472;-54
2021/06/10 12:07:38;;;;;;;6.97;6.47;;;32.50;39.30;;;;;;4977627;28;20929;-53
2021/06/10 12:10:09;;;;;;;6.10;5.60;;;31.40;39.40;;;;;;4977729;28;20457;-57
2021/06/10 12:12:41;;;;;;;6.33;5.07;;;31.50;40.80;;;;;;4978713;28;20453;-54
2021/06/10 12:15:27;;;;;;;7.00;6.33;;;31.10;41.40;;;;;;4978641;28;20559;-55
2021/06/10 12:17:59;;;;;;;5.60;5.17;;;31.30;40.10;;;;;;4978698;28;20473;-56
2021/06/10 12:20:28;;;;;;;4.80;4.50;;;30.80;41.00;;;;;;4978251;28;20580;-56
2021/06/10 12:22:58;;;;;;;4.13;3.90;;;31.00;39.60;;;;;;4977953;28;20473;-53
2021/06/10 12:25:35;;;;;;;4.67;4.30;;;30.80;41.60;;;;;;4978581;28;20461;-57
2021/06/10 12:28:02;;;;;;;5.13;4.83;;;31.20;39.80;;;;;;4978028;28;20473;-56
2021/06/10 12:30:36;;;;;;;4.60;4.30;;;30.90;39.40;;;;;;4977467;28;20512;-51
2021/06/10 12:33:16;;;;;;;4.80;4.40;;;30.00;38.50;;;;;;4978384;28;20469;-55
2021/06/10 12:35:44;;;;;;;5.03;4.57;;;31.00;40.50;;;;;;4978212;28;20488;-57
2021/06/10 12:38:13;;;;;;;6.60;5.00;;;32.20;39.40;;;;;;4978091;28;20463;-53
2021/06/10 12:40:41;;;;;;;5.07;4.50;;;32.10;37.60;;;;;;4978315;28;20497;-50
2021/06/10 12:43:11;;;;;;;4.50;4.10;;;31.60;37.90;;;;;;4978082;28;20830;-53
2021/06/10 12:45:38;;;;;;;4.97;4.47;;;30.50;35.90;;;;;;4978339;28;20919;-49
2021/06/10 12:48:29;;;;;;;5.17;4.77;;;29.50;39.10;;;;;;4977871;28;20466;-55
2021/06/10 12:51:22;;;;;;;6.87;5.17;;;30.40;40.20;;;;;;4978578;28;20466;-53
2021/06/10 12:54:07;;;;;;;4.80;4.50;;;31.00;38.10;;;;;;4978189;28;20476;-55
2021/06/10 12:56:42;;;;;;;12.57;4.97;;;32.10;39.60;;;;;;4978244;28;20469;-57
2021/06/10 12:59:10;;;;;;;4.20;3.90;;;32.30;38.00;;;;;;4977844;28;20500;-57
2021/06/10 13:01:36;;;;;;;4.73;4.40;;;32.00;36.80;;;;;;4978486;28;20813;-54
2021/06/10 13:04:04;;;;;;;5.10;4.70;;;31.80;35.90;;;;;;4969289;28;20528;-57
2021/06/10 13:06:31;;;;;;;4.37;4.07;;;32.10;38.20;;;;;;4977506;28;20760;-56
2021/06/10 13:08:58;;;;;;;3.87;3.47;;;31.90;37.20;;;;;;4977880;28;20461;-55
2021/06/10 13:11:25;;;;;;;10.00;4.97;;;31.90;37.30;;;;;;4978530;28;20762;-50
2021/06/10 13:13:56;;;;;;;6.23;4.70;;;32.30;36.60;;;;;;4977372;28;20524;-54
2021/06/10 13:16:22;;;;;;;16.13;6.10;;;32.50;35.30;;;;;;4978275;28;20476;-52
2021/06/10 13:18:50;;;;;;;5.50;4.60;;;32.20;34.50;;;;;;4978125;28;20465;-55
2021/06/10 13:21:21;;;;;;;5.10;4.60;;;31.70;35.80;;;;;;4977957;28;20453;-56
2021/06/10 13:23:52;;;;;;;5.07;4.67;;;31.30;37.50;;;;;;4978276;28;20465;-49
2021/06/10 13:26:21;;;;;;;6.70;4.50;;;31.50;38.90;;;;;;4978078;28;20524;-49
2021/06/10 13:29:00;;;;;;;4.60;4.20;;;31.60;38.40;;;;;;4977721;28;20493;-53
2021/06/10 13:31:35;;;;;;;6.40;5.00;;;31.00;39.00;;;;;;4977665;28;20501;-50
2021/06/10 13:34:05;;;;;;;5.17;4.77;;;31.20;40.80;;;;;;4978262;28;20480;-50
2021/06/10 13:36:42;;;;;;;4.80;4.40;;;31.00;39.70;;;;;;4977792;28;20469;-50
2021/06/10 13:39:10;;;;;;;5.10;4.60;;;30.60;39.90;;;;;;4977677;28;20492;-50
2021/06/10 13:41:41;;;;;;;4.97;4.67;;;29.60;39.50;;;;;;4979307;28;20469;-48
2021/06/10 13:44:08;;;;;;;5.60;5.10;;;28.80;41.50;;;;;;4981211;28;20552;-50
2021/06/10 13:46:41;;;;;;;4.97;4.67;;;29.40;41.70;;;;;;4981337;28;20921;-56
2021/06/10 13:49:08;;;;;;;4.07;3.73;;;30.40;43.30;;;;;;4981826;28;20462;-50
2021/06/10 13:51:36;;;;;;;5.60;5.20;;;30.30;37.90;;;;;;4980687;28;20913;-55
2021/06/10 13:54:03;;;;;;;4.80;4.40;;;29.70;38.10;;;;;;4980760;28;20461;-53
2021/06/10 13:56:29;;;;;;;4.40;4.10;;;29.30;39.50;;;;;;4980809;28;20917;-55
2021/06/10 13:58:56;;;;;;;6.60;6.03;;;29.50;40.30;;;;;;4980492;28;20475;-56
2021/06/10 14:01:24;;;;;;;5.50;4.90;;;30.00;40.90;;;;;;4978966;28;20768;-54
2021/06/10 14:03:51;;;;;;;4.90;4.50;;;30.80;39.90;;;;;;4971166;28;20474;-56
2021/06/10 14:06:17;;;;;;;5.77;5.00;;;31.30;40.00;;;;;;4978262;28;20767;-55
2021/06/10 14:08:45;;;;;;;34.30;10.30;;;31.20;39.80;;;;;;4978841;28;20462;-48
2021/06/10 14:11:13;;;;;;;14.80;6.10;;;31.10;39.60;;;;;;4979678;28;20902;-53
2021/06/10 14:13:40;;;;;;;12.03;5.70;;;30.90;38.30;;;;;;4979808;28;20440;-53
2021/06/10 14:16:07;;;;;;;8.40;6.07;;;30.40;40.70;;;;;;4979459;28;20564;-50
2021/06/10 14:18:34;;;;;;;6.10;4.90;;;30.20;39.80;;;;;;4980623;28;20563;-52
2021/06/10 14:21:01;;;;;;;9.17;4.97;;;30.40;39.90;;;;;;4980027;28;20490;-53
2021/06/10 14:23:27;;;;;;;6.73;6.23;;;31.00;39.90;;;;;;4980491;28;20812;-49
2021/06/10 14:25:55;;;;;;;10.83;6.13;;;30.40;39.60;;;;;;4979992;28;20477;-54
2021/06/10 14:28:22;;;;;;;7.10;5.90;;;29.80;39.90;;;;;;4980323;28;20477;-54
2021/06/10 14:31:02;;;;;;;5.80;5.30;;;29.50;40.50;;;;;;4980400;28;20465;-52
2021/06/10 14:33:28;;;;;;;5.53;5.13;;;29.20;42.10;;;;;;4980716;28;20471;-48
2021/06/10 14:35:55;;;;;;;5.13;4.43;;;29.10;42.50;;;;;;4980535;28;20465;-50
2021/06/10 14:38:24;;;;;;;5.77;5.37;;;28.70;43.30;;;;;;4980190;28;20771;-49
2021/06/10 14:40:51;;;;;;;6.63;5.60;;;29.10;43.50;;;;;;4980181;28;20497;-52
2021/06/10 14:43:19;;;;;;;6.30;5.70;;;29.30;43.40;;;;;;4979970;28;20462;-53